Time;durP1;ratioP1;P1;durP2;ratioP2;P2;SDS_P1;SDS_P2;PMS_P1;PMS_P2;Temp;Humidity;BMP_temperature;BMP_pressure;BME280_temperature;BME280_humidity;BME280_pressure;Samples;Min_cycle;Max_cycle;Signal;HPM_P1;HPM_P2
2023/12/22 00:02:28;;;;;;;6.80;1.90;;;;;;;4.87;96.35;96797.58;110952;244;38286;-72
2023/12/22 00:05:02;;;;;;;4.90;2.30;;;;;;;4.85;96.30;96792.91;110935;244;39401;-73
2023/12/22 00:07:36;;;;;;;4.80;1.60;;;;;;;4.83;96.25;96790.46;110958;244;38390;-71
2023/12/22 00:10:11;;;;;;;8.20;2.40;;;;;;;4.81;96.18;96786.94;110973;244;38466;-72
2023/12/22 00:12:45;;;;;;;8.20;1.90;;;;;;;4.78;96.09;96791.83;110996;244;38331;-72
2023/12/22 00:15:19;;;;;;;6.90;2.30;;;;;;;4.73;95.92;96792.91;111004;244;38592;-75
2023/12/22 00:17:53;;;;;;;10.40;2.10;;;;;;;4.67;95.85;96796.80;110881;243;153596;-70
2023/12/22 00:20:27;;;;;;;9.40;2.30;;;;;;;4.59;95.54;96790.60;110969;244;39851;-70
2023/12/22 00:23:01;;;;;;;8.60;2.30;;;;;;;4.53;95.50;96792.73;110975;244;38837;-70
2023/12/22 00:25:36;;;;;;;7.20;1.90;;;;;;;4.50;95.51;96791.46;110787;243;153732;-69
2023/12/22 00:28:10;;;;;;;6.20;2.00;;;;;;;4.46;95.36;96789.64;110929;244;39275;-69
2023/12/22 00:30:44;;;;;;;7.40;2.10;;;;;;;4.42;95.30;96796.65;110900;241;153219;-74
2023/12/22 00:33:18;;;;;;;9.80;2.90;;;;;;;4.37;95.21;96795.77;111037;243;38302;-75
2023/12/22 00:35:52;;;;;;;6.40;2.10;;;;;;;4.33;95.21;96802.63;110931;242;154548;-70
2023/12/22 00:38:26;;;;;;;9.30;3.00;;;;;;;4.28;95.05;96809.23;110944;244;38813;-70
2023/12/22 00:41:00;;;;;;;7.40;2.00;;;;;;;4.23;94.96;96809.05;110990;244;38681;-75
2023/12/22 00:43:34;;;;;;;10.40;2.70;;;;;;;4.16;94.85;96815.35;110858;242;154939;-74
2023/12/22 00:46:08;;;;;;;10.70;2.30;;;;;;;4.13;94.73;96819.39;111092;243;38488;-74
2023/12/22 00:48:42;;;;;;;11.50;3.00;;;;;;;4.08;94.64;96825.42;110853;242;153833;-74
2023/12/22 00:51:17;;;;;;;13.10;2.30;;;;;;;4.03;94.39;96833.30;110982;244;38245;-72
2023/12/22 00:53:51;;;;;;;9.70;3.20;;;;;;;3.98;94.37;96835.59;110814;242;154760;-73
2023/12/22 00:56:25;;;;;;;9.00;2.70;;;;;;;3.92;94.13;96829.61;111021;244;38768;-69
2023/12/22 00:58:59;;;;;;;10.30;4.20;;;;;;;3.88;93.80;96834.35;110851;244;173107;-71
2023/12/22 01:01:33;;;;;;;7.90;2.60;;;;;;;3.84;93.85;96837.23;110941;241;154171;-72
2023/12/22 01:04:07;;;;;;;13.80;3.30;;;;;;;3.81;93.70;96838.63;111110;243;39502;-72
2023/12/22 01:06:43;;;;;;;11.10;2.30;;;;;;;3.78;93.70;96843.00;111075;243;38727;-70
2023/12/22 01:09:17;;;;;;;9.50;2.70;;;;;;;3.74;93.64;96836.66;111059;243;39850;-71
2023/12/22 01:11:50;;;;;;;8.10;2.30;;;;;;;3.69;93.48;96828.05;110939;242;153953;-73
2023/12/22 01:14:24;;;;;;;10.30;2.80;;;;;;;3.66;93.19;96827.74;111027;243;38308;-70
2023/12/22 01:17:00;;;;;;;10.20;3.30;;;;;;;3.64;92.95;96833.55;111073;243;38592;-71
2023/12/22 01:19:34;;;;;;;9.00;2.30;;;;;;;3.62;92.77;96829.55;110929;241;153310;-71
2023/12/22 01:22:08;;;;;;;10.70;3.20;;;;;;;3.60;92.62;96829.33;111031;243;39356;-68
2023/12/22 01:24:43;;;;;;;12.40;3.40;;;;;;;3.56;92.65;96822.91;110944;241;153598;-70
2023/12/22 01:27:17;;;;;;;8.70;2.40;;;;;;;3.52;92.38;96818.48;111055;243;38512;-73
2023/12/22 01:29:52;;;;;;;9.70;2.80;;;;;;;3.50;92.52;96815.18;110901;243;154882;-74
2023/12/22 01:32:32;;;;;;;9.80;3.90;;;;;;;3.52;92.50;96808.70;111078;243;38353;-75
2023/12/22 01:35:09;;;;;;;10.60;2.30;;;;;;;3.53;92.44;96806.71;111056;243;39610;-74
2023/12/22 01:37:43;;;;;;;12.30;2.90;;;;;;;3.54;92.12;96815.23;110921;242;153637;-74
2023/12/22 01:40:17;;;;;;;11.50;2.60;;;;;;;3.54;92.10;96814.73;111068;243;38692;-74
2023/12/22 01:42:51;;;;;;;9.80;3.60;;;;;;;3.53;92.16;96816.05;111110;243;39577;-71
2023/12/22 01:45:25;;;;;;;9.90;2.50;;;;;;;3.54;92.22;96814.59;111029;243;38872;-71
2023/12/22 01:47:59;;;;;;;8.00;2.70;;;;;;;3.55;92.04;96816.77;110946;241;154960;-71
2023/12/22 01:50:36;;;;;;;9.90;2.40;;;;;;;3.55;91.97;96817.94;111052;243;39611;-71
2023/12/22 01:53:10;;;;;;;11.30;2.40;;;;;;;3.57;91.75;96825.20;111099;243;38609;-75
2023/12/22 01:55:44;;;;;;;11.30;2.70;;;;;;;3.60;91.67;96826.75;111015;243;154143;-72
2023/12/22 01:58:18;;;;;;;9.70;2.70;;;;;;;3.62;91.41;96829.05;111079;243;38226;-70
2023/12/22 02:00:52;;;;;;;8.80;2.50;;;;;;;3.62;91.21;96832.98;110883;243;154391;-70
2023/12/22 02:03:26;;;;;;;11.10;3.40;;;;;;;3.63;91.27;96836.73;111059;243;38537;-68
2023/12/22 02:06:03;;;;;;;8.50;3.00;;;;;;;3.67;91.28;96835.81;110805;243;175832;-74
2023/12/22 02:08:37;;;;;;;10.70;2.90;;;;;;;3.70;90.93;96831.64;110944;244;38929;-72
2023/12/22 02:11:11;;;;;;;11.30;3.40;;;;;;;3.74;90.49;96832.89;111054;244;39278;-72
2023/12/22 02:13:45;;;;;;;14.30;3.00;;;;;;;3.76;90.18;96825.38;110848;241;153460;-74
2023/12/22 02:16:24;;;;;;;14.10;3.40;;;;;;;3.76;90.28;96826.88;111105;244;39715;-71
2023/12/22 02:19:00;;;;;;;9.70;2.80;;;;;;;3.76;90.04;96829.83;110797;244;152940;-71
2023/12/22 02:21:34;;;;;;;8.00;2.70;;;;;;;3.75;89.46;96817.64;110986;244;38318;-73
2023/12/22 02:24:11;;;;;;;8.90;2.80;;;;;;;3.77;89.42;96812.17;110842;243;154018;-72
2023/12/22 02:26:47;;;;;;;8.20;2.70;;;;;;;3.79;89.33;96811.70;110935;245;38287;-73
2023/12/22 02:29:20;;;;;;;13.50;3.20;;;;;;;3.80;89.33;96809.73;110875;245;38628;-73
2023/12/22 02:31:54;;;;;;;12.80;2.70;;;;;;;3.81;89.25;96810.50;110823;242;154039;-72
2023/12/22 02:34:28;;;;;;;8.70;2.60;;;;;;;3.79;88.31;96806.70;111000;245;40065;-71
2023/12/22 02:37:02;;;;;;;10.90;2.60;;;;;;;3.76;88.25;96807.78;110855;242;153976;-74
2023/12/22 02:39:36;;;;;;;8.50;2.30;;;;;;;3.73;88.15;96800.55;110830;245;173050;-74
2023/12/22 02:42:10;;;;;;;11.20;2.90;;;;;;;3.72;88.16;96807.20;110841;243;153742;-73
2023/12/22 02:44:44;;;;;;;14.50;3.30;;;;;;;3.71;88.47;96808.59;110976;244;39733;-72
2023/12/22 02:47:17;;;;;;;8.50;2.70;;;;;;;3.74;88.39;96812.38;110959;245;38414;-72
2023/12/22 02:49:52;;;;;;;9.30;3.60;;;;;;;3.75;88.27;96807.17;110833;242;154378;-74
2023/12/22 02:52:26;;;;;;;8.40;2.90;;;;;;;3.75;88.46;96803.00;111037;244;38451;-70
2023/12/22 02:55:00;;;;;;;7.50;2.40;;;;;;;3.77;88.34;96797.14;110888;241;153625;-70
2023/12/22 02:57:34;;;;;;;10.40;2.60;;;;;;;3.83;88.25;96798.51;111003;244;38514;-72
2023/12/22 03:00:10;;;;;;;11.60;3.50;;;;;;;3.88;87.87;96798.15;110871;241;154213;-73
2023/12/22 03:02:44;;;;;;;8.20;2.60;;;;;;;3.93;88.03;96792.83;110988;244;39446;-74
2023/12/22 03:05:18;;;;;;;7.80;2.40;;;;;;;3.96;87.75;96799.38;111002;244;39470;-74
2023/12/22 03:07:52;;;;;;;8.80;2.50;;;;;;;3.97;87.54;96800.12;110890;241;154664;-73
2023/12/22 03:10:27;;;;;;;8.30;2.50;;;;;;;4.00;87.73;96806.15;110964;244;39101;-72
2023/12/22 03:13:00;;;;;;;8.40;2.80;;;;;;;4.03;88.06;96812.67;110890;241;154507;-71
2023/12/22 03:15:35;;;;;;;9.80;3.20;;;;;;;4.05;88.30;96811.48;111060;244;39136;-69
2023/12/22 03:18:09;;;;;;;13.40;4.40;;;;;;;4.05;88.52;96812.48;110894;241;153238;-73
2023/12/22 03:20:43;;;;;;;14.10;3.40;;;;;;;4.03;88.57;96815.21;111019;244;38549;-72
2023/12/22 03:23:17;;;;;;;9.10;2.90;;;;;;;4.01;88.70;96814.66;111084;244;38307;-74
2023/12/22 03:25:51;;;;;;;9.00;2.70;;;;;;;3.99;88.82;96803.60;110843;241;153550;-74
2023/12/22 03:28:25;;;;;;;13.10;2.60;;;;;;;3.99;89.07;96802.26;111069;244;38325;-74
2023/12/22 03:30:59;;;;;;;9.90;2.80;;;;;;;3.99;89.13;96800.15;110932;241;154008;-69
2023/12/22 03:33:33;;;;;;;10.10;3.20;;;;;;;3.98;89.12;96791.63;111062;244;38840;-71
2023/12/22 03:36:08;;;;;;;10.40;2.80;;;;;;;3.97;89.09;96795.11;110960;241;153406;-73
2023/12/22 03:38:42;;;;;;;12.80;3.10;;;;;;;3.94;88.88;96792.39;111018;244;39644;-72
2023/12/22 03:41:16;;;;;;;11.00;2.60;;;;;;;3.94;89.03;96796.56;111126;244;39623;-69
2023/12/22 03:43:50;;;;;;;10.70;3.10;;;;;;;3.93;88.92;96796.46;110806;241;153811;-72
2023/12/22 03:46:24;;;;;;;11.40;3.00;;;;;;;3.93;88.93;96802.46;110936;244;38517;-71
2023/12/22 03:48:58;;;;;;;13.70;3.30;;;;;;;3.95;89.26;96811.52;110819;241;153373;-70
2023/12/22 03:51:32;;;;;;;14.50;2.70;;;;;;;3.94;89.12;96813.96;110927;244;38500;-72
2023/12/22 03:54:06;;;;;;;11.30;4.00;;;;;;;3.93;89.21;96809.23;110802;241;154230;-74
2023/12/22 03:56:40;;;;;;;9.00;3.20;;;;;;;3.92;89.19;96809.76;110929;244;38427;-71
2023/12/22 03:59:14;;;;;;;11.10;3.10;;;;;;;3.93;89.01;96807.12;110939;244;38452;-70
2023/12/22 04:01:55;;;;;;;10.90;3.50;;;;;;;3.93;88.93;96808.33;110869;242;155065;-70
2023/12/22 04:04:28;;;;;;;12.80;2.50;;;;;;;3.92;88.92;96809.94;110993;244;39861;-70
2023/12/22 04:07:02;;;;;;;14.10;3.50;;;;;;;3.91;89.02;96804.69;110865;242;153511;-71
2023/12/22 04:09:37;;;;;;;9.50;3.00;;;;;;;3.91;89.14;96808.12;110971;244;38538;-71
2023/12/22 04:12:11;;;;;;;10.30;3.30;;;;;;;3.89;88.93;96805.86;110887;241;153738;-70
2023/12/22 04:14:45;;;;;;;11.20;2.90;;;;;;;3.86;88.72;96806.55;110917;244;38576;-70
2023/12/22 04:17:19;;;;;;;11.40;2.60;;;;;;;3.84;88.68;96804.95;111015;244;39470;-71
2023/12/22 04:20:01;;;;;;;12.50;3.50;;;;;;;3.82;88.51;96800.27;110840;241;153464;-70
2023/12/22 04:22:35;;;;;;;9.50;2.90;;;;;;;3.80;88.44;96802.65;110852;244;175856;-73
2023/12/22 04:25:10;;;;;;;12.30;3.30;;;;;;;3.78;88.26;96804.17;110833;241;154315;-73
2023/12/22 04:27:44;;;;;;;11.30;3.20;;;;;;;3.75;87.82;96803.02;110961;244;38839;-70
2023/12/22 04:30:19;;;;;;;7.50;3.40;;;;;;;3.71;87.80;96802.60;110717;242;176833;-72
2023/12/22 04:32:52;;;;;;;8.60;3.00;;;;;;;3.68;87.67;96809.69;110947;244;38224;-69
2023/12/22 04:35:27;;;;;;;8.80;3.20;;;;;;;3.65;87.57;96810.22;110973;244;38585;-71
2023/12/22 04:38:01;;;;;;;14.10;2.80;;;;;;;3.64;87.48;96821.86;110982;243;38509;-71
2023/12/22 04:40:35;;;;;;;13.00;3.40;;;;;;;3.62;87.32;96821.77;111075;243;39445;-71
2023/12/22 04:43:10;;;;;;;11.70;3.00;;;;;;;3.60;87.22;96829.18;110842;242;154815;-74
2023/12/22 04:45:44;;;;;;;9.10;2.90;;;;;;;3.58;87.50;96819.11;111091;244;38286;-72
2023/12/22 04:48:18;;;;;;;7.90;2.20;;;;;;;3.59;87.33;96812.68;110939;242;153903;-73
2023/12/22 04:50:51;;;;;;;11.00;2.60;;;;;;;3.59;87.26;96811.81;111012;245;38335;-74
2023/12/22 04:53:25;;;;;;;13.90;3.10;;;;;;;3.59;87.29;96812.17;110987;245;38837;-74
2023/12/22 04:56:00;;;;;;;9.90;2.50;;;;;;;3.56;87.11;96815.97;111018;242;38250;-70
2023/12/22 04:58:34;;;;;;;10.80;3.20;;;;;;;3.52;86.99;96819.39;111038;244;39953;-71
2023/12/22 05:01:08;;;;;;;8.90;2.80;;;;;;;3.47;87.03;96822.96;110888;242;155139;-72
2023/12/22 05:03:43;;;;;;;8.40;2.80;;;;;;;3.45;87.12;96827.96;110940;245;38845;-73
2023/12/22 05:06:17;;;;;;;9.10;2.60;;;;;;;3.44;87.20;96835.57;110816;242;153476;-72
2023/12/22 05:08:52;;;;;;;10.30;3.50;;;;;;;3.44;87.45;96834.20;110951;244;38541;-74
2023/12/22 05:11:26;;;;;;;9.60;3.10;;;;;;;3.45;87.46;96838.46;111052;244;38789;-75
2023/12/22 05:14:00;;;;;;;11.60;2.90;;;;;;;3.42;87.15;96845.68;110924;243;38852;-73
2023/12/22 05:16:34;;;;;;;7.50;2.40;;;;;;;3.39;86.82;96849.86;111094;244;38231;-74
2023/12/22 05:19:08;;;;;;;8.60;2.70;;;;;;;3.38;86.84;96864.41;110920;241;153953;-72
2023/12/22 05:21:42;;;;;;;8.40;2.70;;;;;;;3.39;86.73;96865.54;111044;244;38342;-72
2023/12/22 05:24:16;;;;;;;9.50;2.90;;;;;;;3.41;86.89;96865.41;110864;242;153325;-72
2023/12/22 05:26:50;;;;;;;15.20;3.20;;;;;;;3.43;86.91;96870.98;110965;243;175860;-73
2023/12/22 05:29:25;;;;;;;11.40;2.50;;;;;;;3.43;86.73;96869.44;111022;243;38237;-74
2023/12/22 05:31:59;;;;;;;8.80;2.80;;;;;;;3.42;86.84;96863.26;110996;244;38835;-74
2023/12/22 05:34:33;;;;;;;7.80;2.50;;;;;;;3.42;86.83;96870.67;111018;244;39512;-74
2023/12/22 05:37:07;;;;;;;9.40;2.80;;;;;;;3.44;86.93;96866.60;110939;241;153542;-74
2023/12/22 05:39:41;;;;;;;11.50;3.60;;;;;;;3.47;86.92;96867.42;111080;244;40173;-72
2023/12/22 05:42:15;;;;;;;10.70;3.20;;;;;;;3.49;86.75;96870.91;110974;242;153350;-73
2023/12/22 05:44:49;;;;;;;12.60;3.00;;;;;;;3.48;86.56;96873.04;111023;244;38872;-74
2023/12/22 05:47:23;;;;;;;14.80;3.30;;;;;;;3.47;86.50;96879.14;111122;244;39498;-74
2023/12/22 05:49:57;;;;;;;15.40;3.60;;;;;;;3.44;86.38;96880.88;110817;242;153674;-72
2023/12/22 05:52:31;;;;;;;9.60;2.60;;;;;;;3.44;86.45;96876.59;110931;245;38226;-70
2023/12/22 05:55:06;;;;;;;14.00;3.70;;;;;;;3.46;86.52;96875.24;110820;241;153641;-70
2023/12/22 05:57:40;;;;;;;12.60;4.40;;;;;;;3.48;86.57;96875.95;111094;244;38304;-73
2023/12/22 06:00:18;;;;;;;14.80;3.60;;;;;;;3.49;86.45;96875.89;110251;244;913235;-74
2023/12/22 06:02:52;;;;;;;10.60;3.50;;;;;;;3.49;86.48;96873.30;111049;244;39486;-70
2023/12/22 06:05:26;;;;;;;13.60;3.30;;;;;;;3.49;86.59;96878.01;111030;244;38493;-69
2023/12/22 06:08:01;;;;;;;12.40;3.70;;;;;;;3.46;85.86;96875.23;110987;243;38984;-71
2023/12/22 06:10:36;;;;;;;13.80;2.60;;;;;;;3.45;85.46;96878.95;111028;244;39454;-72
2023/12/22 06:13:10;;;;;;;13.00;3.50;;;;;;;3.44;85.27;96889.65;110904;242;154451;-75
2023/12/22 06:15:44;;;;;;;14.10;3.40;;;;;;;3.44;84.95;96891.56;111010;244;39078;-71
2023/12/22 06:18:18;;;;;;;14.70;3.40;;;;;;;3.44;84.71;96890.90;110901;244;153567;-70
2023/12/22 06:20:53;;;;;;;20.70;3.50;;;;;;;3.41;84.55;96892.81;111037;244;38576;-72
2023/12/22 06:23:27;;;;;;;14.30;3.40;;;;;;;3.38;83.92;96894.23;111112;244;38392;-69
2023/12/22 06:26:03;;;;;;;10.40;3.00;;;;;;;3.36;83.62;96892.63;110956;243;38461;-69
2023/12/22 06:28:38;;;;;;;11.50;2.70;;;;;;;3.35;83.46;96899.74;111029;244;38978;-70
2023/12/22 06:31:19;;;;;;;11.00;3.20;;;;;;;3.35;83.13;96901.14;110877;241;153729;-71
2023/12/22 06:33:54;;;;;;;17.20;4.60;;;;;;;3.35;82.52;96917.51;110988;244;38395;-72
2023/12/22 06:36:28;;;;;;;14.80;3.80;;;;;;;3.35;82.58;96918.83;111080;244;39135;-72
2023/12/22 06:39:03;;;;;;;17.00;4.10;;;;;;;3.34;81.67;96924.05;111010;244;38834;-72
2023/12/22 06:41:39;;;;;;;16.00;3.80;;;;;;;3.33;81.61;96921.07;111010;244;38995;-70
2023/12/22 06:44:16;;;;;;;17.60;4.00;;;;;;;3.31;81.51;96925.68;110922;244;38403;-69
2023/12/22 06:46:50;;;;;;;10.90;2.80;;;;;;;3.30;81.61;96923.30;110975;244;38539;-73
2023/12/22 06:49:24;;;;;;;13.40;2.70;;;;;;;3.30;80.59;96918.98;111004;244;38414;-74
2023/12/22 06:51:58;;;;;;;12.00;3.50;;;;;;;3.31;80.25;96928.92;111018;244;39446;-73
2023/12/22 06:54:32;;;;;;;15.40;3.20;;;;;;;3.30;80.24;96932.44;110864;242;153794;-73
2023/12/22 06:57:06;;;;;;;14.80;4.30;;;;;;;3.28;78.52;96920.88;111024;244;39630;-69
2023/12/22 06:59:41;;;;;;;14.90;2.90;;;;;;;3.26;78.19;96922.70;111068;244;38444;-70
2023/12/22 07:02:15;;;;;;;16.30;3.20;;;;;;;3.24;77.81;96931.45;111093;244;38356;-73
2023/12/22 07:05:20;;;;;;;13.00;2.90;;;;;;;3.21;77.03;96927.14;111081;244;38998;-73
2023/12/22 07:07:55;;;;;;;12.10;3.10;;;;;;;3.16;75.78;96932.80;110897;242;154464;-73
2023/12/22 07:10:28;;;;;;;10.00;2.60;;;;;;;3.14;75.66;96944.85;110883;245;175634;-74
2023/12/22 07:13:03;;;;;;;12.20;3.00;;;;;;;3.11;75.33;96952.95;110885;242;153385;-72
2023/12/22 07:15:37;;;;;;;7.00;2.10;;;;;;;3.08;74.80;96959.48;110965;245;38289;-74
2023/12/22 07:18:12;;;;;;;7.50;2.80;;;;;;;3.07;74.69;96961.46;110822;242;154375;-70
2023/12/22 07:20:46;;;;;;;16.10;2.50;;;;;;;3.07;75.16;96961.41;110961;244;39608;-73
2023/12/22 07:23:20;;;;;;;11.60;3.50;;;;;;;3.08;74.56;96958.95;110976;244;41053;-74
2023/12/22 07:25:54;;;;;;;15.90;3.50;;;;;;;3.10;74.62;96965.55;110992;241;153203;-70
2023/12/22 07:28:28;;;;;;;14.40;3.10;;;;;;;3.11;74.63;96956.41;111105;244;38038;-69
2023/12/22 07:31:03;;;;;;;11.60;3.10;;;;;;;3.11;74.74;96966.55;110916;243;153640;-74
2023/12/22 07:33:36;;;;;;;14.20;3.40;;;;;;;3.09;73.93;96968.88;110930;244;38283;-75
2023/12/22 07:36:11;;;;;;;14.70;3.10;;;;;;;3.08;73.67;96967.10;110856;241;154417;-71
2023/12/22 07:38:45;;;;;;;8.30;2.50;;;;;;;3.06;73.99;96971.49;110971;244;38769;-72
2023/12/22 07:41:19;;;;;;;8.70;2.00;;;;;;;3.03;73.71;96974.98;111061;244;40214;-73
2023/12/22 07:43:53;;;;;;;8.30;2.30;;;;;;;3.02;73.58;96978.45;111133;244;38317;-72
2023/12/22 07:46:28;;;;;;;10.30;3.00;;;;;;;3.00;72.91;96981.52;111005;244;38684;-71
2023/12/22 07:49:04;;;;;;;12.90;3.10;;;;;;;2.98;73.08;96984.41;110790;244;153028;-69
2023/12/22 07:51:39;;;;;;;11.20;2.50;;;;;;;2.96;73.06;96985.75;111027;245;38250;-70
2023/12/22 07:54:13;;;;;;;17.50;4.50;;;;;;;2.96;72.68;96993.98;110900;242;153429;-72
2023/12/22 07:56:47;;;;;;;10.00;3.10;;;;;;;2.98;72.28;96995.08;110322;244;793116;-71
2023/12/22 07:59:21;;;;;;;10.60;3.00;;;;;;;3.00;73.05;97001.33;110970;244;38420;-71
2023/12/22 08:01:55;;;;;;;11.90;3.10;;;;;;;3.01;72.80;96998.84;110961;244;38287;-73
2023/12/22 08:04:28;;;;;;;11.00;2.70;;;;;;;3.01;73.01;96997.96;110981;244;39145;-74
2023/12/22 08:07:03;;;;;;;11.30;2.60;;;;;;;3.02;73.14;96995.67;110824;244;153178;-74
2023/12/22 08:09:37;;;;;;;10.00;2.80;;;;;;;3.03;72.88;96989.94;110948;244;38400;-74
2023/12/22 08:12:12;;;;;;;9.50;2.80;;;;;;;3.02;72.48;97005.64;110972;244;39527;-71
2023/12/22 08:14:46;;;;;;;7.50;2.10;;;;;;;3.02;72.35;97005.70;110921;245;38550;-72
2023/12/22 08:17:20;;;;;;;7.60;2.30;;;;;;;3.02;72.21;96999.83;110956;245;38236;-71
2023/12/22 08:19:54;;;;;;;9.20;2.80;;;;;;;3.07;72.26;97005.23;110818;242;153238;-70
2023/12/22 08:22:28;;;;;;;11.90;2.80;;;;;;;3.10;72.03;97016.20;111041;244;38346;-69
2023/12/22 08:25:02;;;;;;;10.40;3.80;;;;;;;3.14;72.22;97019.55;110894;241;153472;-71
2023/12/22 08:27:36;;;;;;;16.40;3.70;;;;;;;3.18;72.20;97034.48;111013;244;38656;-71
2023/12/22 08:30:14;;;;;;;12.10;4.00;;;;;;;3.21;72.29;97035.69;111117;244;39117;-69
2023/12/22 08:32:48;;;;;;;13.10;3.00;;;;;;;3.24;71.83;97041.54;110957;244;39457;-75
2023/12/22 08:35:22;;;;;;;13.50;3.00;;;;;;;3.29;72.44;97046.91;111146;244;39870;-74
2023/12/22 08:37:57;;;;;;;11.10;3.00;;;;;;;3.34;72.97;97051.20;110920;241;154115;-74
2023/12/22 08:40:31;;;;;;;11.90;3.80;;;;;;;3.40;72.63;97046.74;111100;244;38296;-72
2023/12/22 08:43:06;;;;;;;11.00;3.50;;;;;;;3.45;72.81;97052.77;110945;241;153217;-72
2023/12/22 08:45:42;;;;;;;10.60;3.00;;;;;;;3.50;73.10;97052.29;111029;244;38531;-71
2023/12/22 08:48:16;;;;;;;10.70;2.60;;;;;;;3.55;72.84;97052.34;111066;244;39523;-72
2023/12/22 08:50:51;;;;;;;14.20;3.70;;;;;;;3.62;73.03;97057.26;110999;244;38564;-74
2023/12/22 08:53:25;;;;;;;14.20;3.20;;;;;;;3.69;73.19;97045.27;111044;244;39469;-72
2023/12/22 08:55:59;;;;;;;18.80;4.20;;;;;;;3.79;73.65;97045.29;110892;244;153212;-73
2023/12/22 08:58:34;;;;;;;14.00;3.70;;;;;;;3.89;73.96;97044.30;111047;244;38498;-70
2023/12/22 09:01:08;;;;;;;13.30;3.60;;;;;;;3.95;73.83;97046.70;110973;241;154434;-74
2023/12/22 09:03:45;;;;;;;9.70;3.50;;;;;;;4.00;73.30;97042.55;110928;244;175753;-75
2023/12/22 09:06:21;;;;;;;13.20;3.30;;;;;;;4.02;72.95;97041.70;111145;244;154017;-74
2023/12/22 09:08:55;;;;;;;12.60;3.70;;;;;;;4.01;72.71;97034.88;110997;244;38555;-74
2023/12/22 09:11:29;;;;;;;11.40;2.80;;;;;;;3.97;72.80;97033.45;111110;244;38397;-73
2023/12/22 09:14:04;;;;;;;11.50;3.30;;;;;;;3.95;72.74;97034.29;110913;241;153745;-72
2023/12/22 09:16:40;;;;;;;9.70;2.90;;;;;;;3.97;72.40;97031.89;111138;244;38812;-73
2023/12/22 09:19:15;;;;;;;11.00;2.70;;;;;;;4.05;72.50;97021.55;110924;241;175400;-74
2023/12/22 09:21:49;;;;;;;9.20;3.00;;;;;;;4.17;72.15;97022.82;111054;244;39441;-71
2023/12/22 09:24:23;;;;;;;12.10;3.60;;;;;;;4.28;71.72;97018.52;111087;244;39422;-75
2023/12/22 09:27:02;;;;;;;10.50;2.90;;;;;;;4.39;71.60;97013.26;110994;244;39069;-74
2023/12/22 09:29:36;;;;;;;9.60;2.80;;;;;;;4.56;71.26;97008.13;110981;244;38891;-74
2023/12/22 09:32:11;;;;;;;11.10;3.10;;;;;;;4.69;69.92;96996.22;110839;243;152739;-73
2023/12/22 09:34:45;;;;;;;12.50;2.90;;;;;;;4.69;68.46;96995.20;111049;244;38607;-74
2023/12/22 09:37:19;;;;;;;10.30;2.70;;;;;;;4.67;69.55;96985.11;111118;244;39041;-73
2023/12/22 09:39:53;;;;;;;9.50;3.70;;;;;;;4.72;70.23;96984.77;111111;244;38293;-73
2023/12/22 09:42:30;;;;;;;10.20;3.00;;;;;;;4.78;70.16;96975.05;111128;244;38572;-73
2023/12/22 09:45:04;;;;;;;12.30;3.10;;;;;;;4.84;69.14;96974.95;110988;244;38399;-74
2023/12/22 09:47:38;;;;;;;11.70;3.30;;;;;;;4.86;69.56;96975.19;111106;244;39725;-74
2023/12/22 09:50:14;;;;;;;9.60;2.40;;;;;;;4.85;67.99;96973.20;110866;241;153712;-75
2023/12/22 09:52:51;;;;;;;11.80;3.40;;;;;;;4.81;68.87;96966.54;111089;244;39251;-72
2023/12/22 09:55:25;;;;;;;11.90;3.00;;;;;;;4.77;68.78;96965.95;110894;242;153300;-73
2023/12/22 09:57:59;;;;;;;10.80;3.10;;;;;;;4.67;67.86;96969.23;111020;244;39457;-72
2023/12/22 10:00:36;;;;;;;13.10;2.90;;;;;;;4.53;68.11;96966.58;110953;244;153433;-72
2023/12/22 10:03:10;;;;;;;12.30;3.00;;;;;;;4.39;69.13;96969.09;110985;244;38241;-72
2023/12/22 10:05:44;;;;;;;9.60;2.10;;;;;;;4.28;69.65;96991.75;111160;244;39441;-74
2023/12/22 10:08:19;;;;;;;4.60;1.70;;;;;;;4.09;71.07;97011.13;110990;241;154807;-69
2023/12/22 10:10:53;;;;;;;3.50;1.30;;;;;;;3.84;72.29;97009.95;111089;243;39256;-74
2023/12/22 10:13:28;;;;;;;4.90;2.10;;;;;;;3.61;72.74;97004.90;110763;242;175759;-73
2023/12/22 10:16:01;;;;;;;7.00;2.50;;;;;;;3.45;73.44;97001.43;110972;244;38332;-70
2023/12/22 10:18:35;;;;;;;5.40;1.70;;;;;;;3.35;74.13;97005.86;110939;244;153348;-70
2023/12/22 10:21:09;;;;;;;4.60;1.40;;;;;;;3.22;74.29;97023.05;110992;244;38351;-73
2023/12/22 10:23:43;;;;;;;2.90;0.80;;;;;;;3.07;74.47;97027.76;111049;244;38629;-72
2023/12/22 10:26:17;;;;;;;3.00;0.80;;;;;;;2.92;75.10;97034.15;110879;244;153879;-70
2023/12/22 10:28:53;;;;;;;2.70;1.40;;;;;;;2.77;75.56;97040.75;110936;245;38335;-71
2023/12/22 10:31:27;;;;;;;2.20;0.80;;;;;;;2.65;76.36;97035.80;111023;241;172631;-72
2023/12/22 10:34:01;;;;;;;3.00;0.70;;;;;;;2.54;76.72;97040.72;110940;245;38509;-71
2023/12/22 10:36:35;;;;;;;2.00;0.80;;;;;;;2.48;77.31;97038.35;110829;241;153357;-72
2023/12/22 10:39:10;;;;;;;2.30;0.80;;;;;;;2.38;77.71;97036.52;110954;245;38886;-73
2023/12/22 10:41:45;;;;;;;1.20;0.60;;;;;;;2.26;78.09;97037.40;110960;245;38498;-72
2023/12/22 10:44:20;;;;;;;1.10;0.60;;;;;;;2.16;78.51;97037.27;110850;241;153729;-72
2023/12/22 10:46:54;;;;;;;1.40;0.70;;;;;;;2.11;79.23;97027.80;110965;245;38254;-73
2023/12/22 10:49:30;;;;;;;1.80;1.00;;;;;;;2.08;79.69;97019.38;110882;241;153439;-73
2023/12/22 10:52:06;;;;;;;0.90;0.70;;;;;;;2.08;80.00;97014.05;110951;244;38400;-74
2023/12/22 10:54:41;;;;;;;2.60;1.10;;;;;;;2.05;80.43;97002.32;110827;241;154057;-72
2023/12/22 10:57:18;;;;;;;1.70;0.90;;;;;;;2.02;80.46;97000.58;110926;244;38773;-70
2023/12/22 10:59:52;;;;;;;4.00;1.10;;;;;;;2.03;80.75;96995.41;110807;245;189151;-70
2023/12/22 11:02:28;;;;;;;2.50;1.00;;;;;;;2.05;80.83;96984.45;110952;245;39077;-73
2023/12/22 11:05:07;;;;;;;3.40;1.10;;;;;;;2.09;81.13;96984.55;110922;245;38520;-72
2023/12/22 11:07:41;;;;;;;3.30;1.50;;;;;;;2.13;81.17;96981.42;110855;241;153720;-70
2023/12/22 11:10:15;;;;;;;5.20;1.80;;;;;;;2.14;81.09;96983.05;110954;245;38356;-71
2023/12/22 11:12:49;;;;;;;5.60;2.50;;;;;;;2.18;81.25;96979.75;110994;245;39736;-72
2023/12/22 11:15:26;;;;;;;2.90;1.40;;;;;;;2.21;81.30;96974.07;110977;245;38541;-72
2023/12/22 11:18:00;;;;;;;3.80;1.40;;;;;;;2.23;81.52;96971.38;110930;245;40072;-70
2023/12/22 11:20:36;;;;;;;4.10;2.20;;;;;;;2.23;81.41;96962.61;110829;241;155310;-70
2023/12/22 11:23:10;;;;;;;4.90;2.00;;;;;;;2.23;81.50;96955.89;110997;245;38331;-71
2023/12/22 11:25:43;;;;;;;5.60;1.80;;;;;;;2.23;81.42;96961.91;110859;241;153376;-72
2023/12/22 11:28:17;;;;;;;6.50;2.10;;;;;;;2.25;81.72;96958.52;111013;245;40577;-74
2023/12/22 11:30:52;;;;;;;6.50;1.90;;;;;;;2.28;81.83;96956.13;110853;241;153225;-72
2023/12/22 11:33:27;;;;;;;5.60;1.70;;;;;;;2.28;81.84;96955.23;110959;244;39481;-73
2023/12/22 11:36:01;;;;;;;5.40;1.90;;;;;;;2.32;81.87;96951.36;110957;245;38864;-72
2023/12/22 11:38:35;;;;;;;6.60;2.20;;;;;;;2.37;81.83;96949.92;110805;241;154034;-73
2023/12/22 11:41:09;;;;;;;4.90;1.90;;;;;;;2.38;81.58;96950.02;110954;245;38242;-73
2023/12/22 11:43:43;;;;;;;4.80;1.80;;;;;;;2.37;81.51;96948.68;110823;241;153352;-71
2023/12/22 11:46:18;;;;;;;5.50;2.60;;;;;;;2.41;81.71;96938.99;110950;245;38303;-72
2023/12/22 11:48:53;;;;;;;6.10;2.50;;;;;;;2.42;81.74;96948.38;110828;245;153524;-71
2023/12/22 11:51:27;;;;;;;4.50;2.20;;;;;;;2.41;81.67;96955.17;110972;245;38325;-72
2023/12/22 11:54:01;;;;;;;5.70;2.20;;;;;;;2.37;81.56;96954.89;110954;245;38244;-69
2023/12/22 11:56:35;;;;;;;3.00;1.80;;;;;;;2.33;81.62;96953.73;110851;243;154070;-72
2023/12/22 11:59:09;;;;;;;5.50;2.20;;;;;;;2.32;81.74;96949.35;110927;245;38432;-74
2023/12/22 12:01:43;;;;;;;4.20;2.00;;;;;;;2.32;81.92;96945.01;110843;243;153143;-73
2023/12/22 12:04:18;;;;;;;10.80;3.10;;;;;;;2.33;81.97;96943.58;110940;245;38575;-73
2023/12/22 12:06:52;;;;;;;6.40;2.00;;;;;;;2.34;82.14;96936.70;110852;242;154486;-73
2023/12/22 12:09:45;;;;;;;5.40;2.10;;;;;;;2.32;82.24;96934.16;110992;245;39334;-73